sensor_id;sensor_type;location;lat;lon;timestamp;pressure;altitude;pressure_sealevel;temperature;humidity
929;BME280;451;47.988;7.842;2023-05-19T00:02:28;98834.63;;;13.73;80.10
929;BME280;451;47.988;7.842;2023-05-19T00:11:36;98807.53;;;13.42;79.57
929;BME280;451;47.988;7.842;2023-05-19T00:20:39;98785.78;;;13.55;78.45
929;BME280;451;47.988;7.842;2023-05-19T00:29:44;98824.16;;;13.80;79.07
929;BME280;451;47.988;7.842;2023-05-19T00:38:47;98821.41;;;13.59;80.40
929;BME280;451;47.988;7.842;2023-05-19T00:47:53;98814.84;;;13.55;80.32
929;BME280;451;47.988;7.842;2023-05-19T00:56:56;98786.50;;;13.11;80.80
929;BME280;451;47.988;7.842;2023-05-19T01:06:03;98799.69;;;12.88;85.00
929;BME280;451;47.988;7.842;2023-05-19T01:15:07;98789.03;;;12.82;86.33
929;BME280;451;47.988;7.842;2023-05-19T01:24:50;98782.53;;;12.70;88.88
929;BME280;451;47.988;7.842;2023-05-19T01:44:01;98754.34;;;12.47;90.71
929;BME280;451;47.988;7.842;2023-05-19T01:53:04;98772.69;;;12.64;90.27
929;BME280;451;47.988;7.842;2023-05-19T02:02:20;98769.75;;;12.59;90.46
929;BME280;451;47.988;7.842;2023-05-19T02:11:34;98776.59;;;12.14;92.80
929;BME280;451;47.988;7.842;2023-05-19T02:20:39;98789.19;;;12.04;94.61
929;BME280;451;47.988;7.842;2023-05-19T02:29:43;98734.53;;;11.98;93.75
929;BME280;451;47.988;7.842;2023-05-19T02:38:47;98771.56;;;12.35;94.29
929;BME280;451;47.988;7.842;2023-05-19T02:47:50;98764.56;;;11.81;97.01
929;BME280;451;47.988;7.842;2023-05-19T02:56:55;98774.81;;;11.67;100.00
929;BME280;451;47.988;7.842;2023-05-19T03:05:58;98777.78;;;11.56;100.00
929;BME280;451;47.988;7.842;2023-05-19T03:15:04;98772.72;;;12.02;99.17
929;BME280;451;47.988;7.842;2023-05-19T03:24:07;98784.34;;;11.77;97.10
929;BME280;451;47.988;7.842;2023-05-19T03:33:13;98772.50;;;12.11;94.78
929;BME280;451;47.988;7.842;2023-05-19T03:42:17;98701.03;;;11.12;100.00
929;BME280;451;47.988;7.842;2023-05-19T03:51:22;98785.28;;;11.84;100.00
929;BME280;451;47.988;7.842;2023-05-19T04:00:29;98734.94;;;11.15;100.00
929;BME280;451;47.988;7.842;2023-05-19T04:09:33;98799.69;;;11.24;100.00
929;BME280;451;47.988;7.842;2023-05-19T04:18:38;98795.63;;;11.22;100.00
929;BME280;451;47.988;7.842;2023-05-19T04:27:42;98799.56;;;11.18;100.00
929;BME280;451;47.988;7.842;2023-05-19T04:36:45;98746.28;;;10.43;100.00
929;BME280;451;47.988;7.842;2023-05-19T04:45:50;98799.69;;;11.24;100.00
929;BME280;451;47.988;7.842;2023-05-19T04:54:56;98802.53;;;11.07;98.12
929;BME280;451;47.988;7.842;2023-05-19T05:04:01;98810.03;;;11.66;96.79
929;BME280;451;47.988;7.842;2023-05-19T05:13:06;98812.34;;;11.61;96.84
929;BME280;451;47.988;7.842;2023-05-19T05:22:13;98787.97;;;11.67;97.07
929;BME280;451;47.988;7.842;2023-05-19T05:31:17;98767.59;;;11.37;96.50
929;BME280;451;47.988;7.842;2023-05-19T05:40:21;98798.34;;;11.53;94.73
929;BME280;451;47.988;7.842;2023-05-19T05:49:25;98801.31;;;12.13;92.78
929;BME280;451;47.988;7.842;2023-05-19T05:58:31;98761.19;;;12.57;87.58
929;BME280;451;47.988;7.842;2023-05-19T06:07:35;98798.22;;;12.40;91.02
929;BME280;451;47.988;7.842;2023-05-19T06:16:40;98796.72;;;12.38;92.27
929;BME280;451;47.988;7.842;2023-05-19T06:25:44;98802.22;;;12.82;89.02
929;BME280;451;47.988;7.842;2023-05-19T06:34:48;98791.66;;;12.82;89.87
929;BME280;451;47.988;7.842;2023-05-19T06:43:55;98783.03;;;13.11;87.79
929;BME280;451;47.988;7.842;2023-05-19T06:52:59;98789.13;;;12.74;90.59
929;BME280;451;47.988;7.842;2023-05-19T07:02:03;98800.88;;;13.46;85.28
929;BME280;451;47.988;7.842;2023-05-19T07:11:09;98744.69;;;13.52;84.01
929;BME280;451;47.988;7.842;2023-05-19T07:20:14;98725.47;;;13.06;85.06
929;BME280;451;47.988;7.842;2023-05-19T07:29:19;98782.59;;;13.89;82.76
929;BME280;451;47.988;7.842;2023-05-19T07:38:22;98745.00;;;14.08;83.75
929;BME280;451;47.988;7.842;2023-05-19T07:47:26;98729.03;;;14.52;79.40
929;BME280;451;47.988;7.842;2023-05-19T07:56:29;98742.09;;;15.24;74.80
929;BME280;451;47.988;7.842;2023-05-19T08:05:34;98757.09;;;15.45;73.16
929;BME280;451;47.988;7.842;2023-05-19T08:14:37;98724.66;;;15.70;72.40
929;BME280;451;47.988;7.842;2023-05-19T08:23:42;98689.72;;;16.14;70.25
929;BME280;451;47.988;7.842;2023-05-19T08:32:45;98697.75;;;16.34;67.40
929;BME280;451;47.988;7.842;2023-05-19T08:41:50;98707.41;;;16.94;66.35
929;BME280;451;47.988;7.842;2023-05-19T08:50:58;98696.78;;;17.21;64.53
929;BME280;451;47.988;7.842;2023-05-19T09:00:07;98690.31;;;17.74;59.41
929;BME280;451;47.988;7.842;2023-05-19T09:09:13;98673.34;;;18.13;55.65
929;BME280;451;47.988;7.842;2023-05-19T09:18:18;98680.16;;;18.09;56.59
929;BME280;451;47.988;7.842;2023-05-19T09:27:21;98673.91;;;18.29;54.72
929;BME280;451;47.988;7.842;2023-05-19T09:36:27;98669.69;;;18.46;54.63
929;BME280;451;47.988;7.842;2023-05-19T09:45:30;98664.31;;;20.11;51.59
929;BME280;451;47.988;7.842;2023-05-19T09:54:35;98655.03;;;20.14;51.39
929;BME280;451;47.988;7.842;2023-05-19T10:03:39;98654.06;;;19.49;51.72
929;BME280;451;47.988;7.842;2023-05-19T10:12:45;98665.94;;;18.60;53.74
929;BME280;451;47.988;7.842;2023-05-19T10:21:49;98661.69;;;19.20;53.27
929;BME280;451;47.988;7.842;2023-05-19T10:30:55;98667.34;;;18.25;54.99
929;BME280;451;47.988;7.842;2023-05-19T10:40:07;98651.53;;;18.92;52.79
929;BME280;451;47.988;7.842;2023-05-19T10:49:19;98654.41;;;18.91;54.32
929;BME280;451;47.988;7.842;2023-05-19T10:58:38;98651.66;;;19.59;53.10
929;BME280;451;47.988;7.842;2023-05-19T11:07:53;98664.16;;;19.40;52.59
929;BME280;451;47.988;7.842;2023-05-19T11:16:58;98664.19;;;19.58;54.15
929;BME280;451;47.988;7.842;2023-05-19T11:26:02;98653.34;;;19.71;51.71
929;BME280;451;47.988;7.842;2023-05-19T11:35:07;98651.03;;;20.23;50.49
929;BME280;451;47.988;7.842;2023-05-19T11:44:11;98642.06;;;19.88;51.01
929;BME280;451;47.988;7.842;2023-05-19T11:53:15;98634.22;;;21.22;49.17
929;BME280;451;47.988;7.842;2023-05-19T12:02:21;98474.75;;;20.00;48.44
929;BME280;451;47.988;7.842;2023-05-19T12:11:27;98644.16;;;20.69;49.50
929;BME280;451;47.988;7.842;2023-05-19T12:20:31;98531.06;;;19.68;51.01
929;BME280;451;47.988;7.842;2023-05-19T12:29:37;98622.75;;;20.34;50.94
929;BME280;451;47.988;7.842;2023-05-19T12:38:41;98632.28;;;20.41;50.67
929;BME280;451;47.988;7.842;2023-05-19T12:47:47;98634.44;;;21.09;50.43
929;BME280;451;47.988;7.842;2023-05-19T12:56:51;98622.34;;;20.30;50.78
929;BME280;451;47.988;7.842;2023-05-19T13:05:54;98622.44;;;21.75;48.09
929;BME280;451;47.988;7.842;2023-05-19T13:15:05;98575.88;;;20.84;48.77
929;BME280;451;47.988;7.842;2023-05-19T13:24:08;98617.47;;;20.92;49.46
929;BME280;451;47.988;7.842;2023-05-19T13:33:13;98609.91;;;21.01;51.43
929;BME280;451;47.988;7.842;2023-05-19T13:42:16;98614.66;;;20.10;52.78
929;BME280;451;47.988;7.842;2023-05-19T13:51:20;98614.59;;;18.71;55.09
929;BME280;451;47.988;7.842;2023-05-19T14:00:24;98607.84;;;18.69;56.29
929;BME280;451;47.988;7.842;2023-05-19T14:09:28;98624.22;;;20.00;53.40
929;BME280;451;47.988;7.842;2023-05-19T14:18:32;98624.22;;;18.97;55.70
929;BME280;451;47.988;7.842;2023-05-19T14:27:36;98612.00;;;19.44;54.40
929;BME280;451;47.988;7.842;2023-05-19T14:36:40;98565.94;;;19.55;54.34
929;BME280;451;47.988;7.842;2023-05-19T14:45:44;98619.28;;;19.55;56.52
929;BME280;451;47.988;7.842;2023-05-19T14:54:48;98627.19;;;20.51;52.22
929;BME280;451;47.988;7.842;2023-05-19T15:03:52;98623.38;;;20.71;51.35
929;BME280;451;47.988;7.842;2023-05-19T15:12:59;98509.13;;;20.08;49.56
929;BME280;451;47.988;7.842;2023-05-19T15:22:04;98616.28;;;19.82;53.12
929;BME280;451;47.988;7.842;2023-05-19T15:31:07;98621.84;;;19.62;53.07
929;BME280;451;47.988;7.842;2023-05-19T15:40:12;98614.06;;;20.08;52.85
929;BME280;451;47.988;7.842;2023-05-19T15:49:15;98592.34;;;20.46;51.01
929;BME280;451;47.988;7.842;2023-05-19T15:58:20;98602.97;;;19.45;53.70
929;BME280;451;47.988;7.842;2023-05-19T16:07:23;98625.53;;;18.32;56.79
929;BME280;451;47.988;7.842;2023-05-19T16:16:27;98621.06;;;18.26;57.03
929;BME280;451;47.988;7.842;2023-05-19T16:25:30;98617.53;;;17.56;58.02
929;BME280;451;47.988;7.842;2023-05-19T16:34:35;98622.47;;;17.52;58.58
929;BME280;451;47.988;7.842;2023-05-19T16:43:38;98628.06;;;17.31;59.22
929;BME280;451;47.988;7.842;2023-05-19T16:52:42;98604.84;;;16.87;60.46
929;BME280;451;47.988;7.842;2023-05-19T17:01:46;98604.38;;;17.23;58.82
929;BME280;451;47.988;7.842;2023-05-19T17:10:50;98634.22;;;17.12;60.16
929;BME280;451;47.988;7.842;2023-05-19T17:19:54;98632.19;;;17.20;59.82
929;BME280;451;47.988;7.842;2023-05-19T17:28:59;98629.63;;;16.68;59.83
929;BME280;451;47.988;7.842;2023-05-19T17:38:02;98627.75;;;16.68;59.83
929;BME280;451;47.988;7.842;2023-05-19T17:47:07;98628.50;;;17.21;58.62
929;BME280;451;47.988;7.842;2023-05-19T17:56:10;98479.78;;;16.04;59.09
929;BME280;451;47.988;7.842;2023-05-19T18:05:16;98628.91;;;17.12;59.53
929;BME280;451;47.988;7.842;2023-05-19T18:14:19;98635.91;;;16.93;59.02
929;BME280;451;47.988;7.842;2023-05-19T18:23:23;98462.03;;;15.72;59.23
929;BME280;451;47.988;7.842;2023-05-19T18:32:26;98644.06;;;16.45;59.79
929;BME280;451;47.988;7.842;2023-05-19T18:41:31;98626.50;;;16.31;59.96
929;BME280;451;47.988;7.842;2023-05-19T18:50:34;98633.53;;;15.78;61.58
929;BME280;451;47.988;7.842;2023-05-19T18:59:39;98590.69;;;15.61;61.38
929;BME280;451;47.988;7.842;2023-05-19T19:08:43;98611.38;;;16.25;60.72
929;BME280;451;47.988;7.842;2023-05-19T19:17:47;98647.31;;;16.21;62.00
929;BME280;451;47.988;7.842;2023-05-19T19:26:50;98675.75;;;15.80;63.46
929;BME280;451;47.988;7.842;2023-05-19T19:35:55;98582.88;;;15.12;63.79
929;BME280;451;47.988;7.842;2023-05-19T19:44:58;98658.47;;;15.90;63.32
929;BME280;451;47.988;7.842;2023-05-19T19:54:02;98643.94;;;15.80;63.72
929;BME280;451;47.988;7.842;2023-05-19T20:03:06;98616.53;;;15.53;64.87
929;BME280;451;47.988;7.842;2023-05-19T20:12:10;98643.75;;;15.40;67.48
929;BME280;451;47.988;7.842;2023-05-19T20:21:13;98658.56;;;15.28;68.69
929;BME280;451;47.988;7.842;2023-05-19T20:30:20;98658.16;;;14.97;72.31
929;BME280;451;47.988;7.842;2023-05-19T20:39:23;98628.34;;;15.16;72.71
929;BME280;451;47.988;7.842;2023-05-19T20:48:29;98652.41;;;14.93;74.70
929;BME280;451;47.988;7.842;2023-05-19T20:57:32;98607.59;;;14.36;75.47
929;BME280;451;47.988;7.842;2023-05-19T21:06:37;98642.69;;;14.44;76.72
929;BME280;451;47.988;7.842;2023-05-19T21:15:40;98644.13;;;14.47;77.13
929;BME280;451;47.988;7.842;2023-05-19T21:24:46;98654.69;;;14.26;77.95
929;BME280;451;47.988;7.842;2023-05-19T21:33:49;98631.03;;;14.39;77.63
929;BME280;451;47.988;7.842;2023-05-19T21:42:53;98619.50;;;14.04;80.25
929;BME280;451;47.988;7.842;2023-05-19T21:51:56;98417.56;;;12.92;80.53
929;BME280;451;47.988;7.842;2023-05-19T22:01:01;98608.09;;;14.03;83.61
929;BME280;451;47.988;7.842;2023-05-19T22:10:04;98588.03;;;13.52;87.87
929;BME280;451;47.988;7.842;2023-05-19T22:19:09;98592.41;;;13.45;89.36
929;BME280;451;47.988;7.842;2023-05-19T22:28:12;98599.34;;;13.31;91.07
929;BME280;451;47.988;7.842;2023-05-19T22:37:17;98583.34;;;13.03;93.17
929;BME280;451;47.988;7.842;2023-05-19T22:46:20;98589.25;;;13.05;93.68
929;BME280;451;47.988;7.842;2023-05-19T22:55:24;98579.69;;;13.04;95.63
929;BME280;451;47.988;7.842;2023-05-19T23:04:27;98579.53;;;13.20;94.50
929;BME280;451;47.988;7.842;2023-05-19T23:13:31;98572.13;;;13.30;94.04
929;BME280;451;47.988;7.842;2023-05-19T23:22:34;98559.84;;;13.08;95.44
929;BME280;451;47.988;7.842;2023-05-19T23:31:39;98485.22;;;13.00;94.04
929;BME280;451;47.988;7.842;2023-05-19T23:40:42;98431.34;;;12.43;94.90
929;BME280;451;47.988;7.842;2023-05-19T23:49:47;98532.81;;;13.36;93.79
929;BME280;451;47.988;7.842;2023-05-19T23:58:50;98527.78;;;13.41;93.26
